Time;durP1;ratioP1;P1;durP2;ratioP2;P2;SDS_P1;SDS_P2;PMS_P1;PMS_P2;Temp;Humidity;BMP_temperature;BMP_pressure;BME280_temperature;BME280_humidity;BME280_pressure;Samples;Min_cycle;Max_cycle;Signal;HPM_P1;HPM_P2
2024/03/20 00:01:51;;;;;;;7.50;5.10;;;2.50;97.80;2.10;101063.00;;;;4879281;28;107303;-65
2024/03/20 00:04:16;;;;;;;7.07;4.90;;;2.50;97.90;2.10;101055.00;;;;4879660;28;118228;-65
2024/03/20 00:06:42;;;;;;;12.90;5.77;;;2.40;98.10;2.10;101058.00;;;;4883549;28;100306;-64
2024/03/20 00:09:08;;;;;;;6.77;5.10;;;2.30;98.30;2.00;101055.00;;;;4881365;28;107556;-64
2024/03/20 00:11:35;;;;;;;8.10;4.30;;;3.20;98.70;2.00;101044.00;;;;4886440;28;88215;-65
2024/03/20 00:14:04;;;;;;;8.40;4.67;;;3.30;99.00;2.00;101049.00;;;;4878224;28;92163;-64
2024/03/20 00:16:30;;;;;;;8.27;5.13;;;2.20;99.00;2.00;101045.00;;;;4882409;28;90067;-65
2024/03/20 00:18:57;;;;;;;8.33;5.07;;;2.40;99.30;2.00;101043.00;;;;4884227;28;91006;-64
2024/03/20 00:21:23;;;;;;;6.47;5.40;;;2.20;99.50;2.00;101036.00;;;;4882098;28;87954;-65
2024/03/20 00:23:48;;;;;;;7.90;5.23;;;2.20;99.70;1.90;101023.00;;;;4883306;28;111103;-65
2024/03/20 00:26:14;;;;;;;6.67;5.17;;;2.20;99.90;1.90;101043.00;;;;4880672;28;116665;-64
2024/03/20 00:28:39;;;;;;;10.77;5.43;;;2.30;99.90;1.90;101036.00;;;;4883534;28;103169;-65
2024/03/20 00:31:06;;;;;;;6.00;4.03;;;2.30;99.90;1.90;101030.00;;;;4879404;28;108896;-65
2024/03/20 00:33:31;;;;;;;7.00;5.43;;;2.20;99.90;1.90;101029.00;;;;4881675;28;102596;-65
2024/03/20 00:35:57;;;;;;;6.67;3.83;;;2.10;99.90;2.00;101020.00;;;;4877772;28;115793;-65
2024/03/20 00:38:22;;;;;;;10.83;5.77;;;2.20;99.90;2.00;101022.00;;;;4889763;28;109008;-64
2024/03/20 00:40:48;;;;;;;9.57;5.93;;;2.30;99.90;2.00;101032.00;;;;4881106;28;108661;-65
2024/03/20 00:43:14;;;;;;;8.30;4.87;;;2.30;99.90;2.00;101022.00;;;;4876719;28;117214;-65
2024/03/20 00:45:40;;;;;;;7.73;4.97;;;2.20;99.90;2.00;101025.00;;;;4880343;28;88796;-65
2024/03/20 00:48:06;;;;;;;9.73;5.97;;;2.30;99.90;1.90;101023.00;;;;4876385;28;110207;-64
2024/03/20 00:50:33;;;;;;;7.27;5.23;;;2.30;99.90;1.90;101015.00;;;;4880750;28;100079;-64
2024/03/20 00:52:58;;;;;;;7.77;5.87;;;2.20;99.90;1.90;101014.00;;;;4879152;28;88296;-65
2024/03/20 00:55:24;;;;;;;7.60;4.77;;;2.30;99.90;1.80;101010.00;;;;4883422;28;116611;-64
2024/03/20 00:57:50;;;;;;;9.93;5.63;;;2.20;99.90;1.80;101002.00;;;;4873591;28;110821;-64
2024/03/20 01:00:19;;;;;;;7.90;5.27;;;2.10;99.90;1.80;100999.00;;;;4881395;28;88945;-64
2024/03/20 01:02:46;;;;;;;9.50;5.53;;;2.20;99.90;1.80;101001.00;;;;4876201;28;89827;-64
2024/03/20 01:05:13;;;;;;;11.37;6.33;;;2.10;99.90;1.80;100996.00;;;;4882311;28;89716;-64
2024/03/20 01:07:39;;;;;;;7.33;5.27;;;2.20;99.90;1.80;101001.00;;;;4881451;28;88029;-64
2024/03/20 01:10:06;;;;;;;5.73;5.17;;;2.10;99.90;1.80;100997.00;;;;4876911;28;96490;-64
2024/03/20 01:12:34;;;;;;;8.73;5.67;;;2.10;99.90;1.80;100998.00;;;;4882125;28;109096;-66
2024/03/20 01:14:59;;;;;;;12.53;6.80;;;2.10;99.90;1.90;100994.00;;;;4881329;28;87556;-65
2024/03/20 01:17:25;;;;;;;11.43;6.43;;;2.10;99.90;1.90;100989.00;;;;4878077;28;110961;-64
2024/03/20 01:19:51;;;;;;;9.73;5.27;;;2.10;99.90;1.90;100988.00;;;;4877477;28;87062;-64
2024/03/20 01:22:17;;;;;;;7.60;6.00;;;2.30;99.90;1.90;100979.00;;;;4876807;28;117205;-64
2024/03/20 01:24:42;;;;;;;7.83;5.57;;;2.10;99.90;1.90;100988.00;;;;4877543;28;117786;-64
2024/03/20 01:27:08;;;;;;;10.10;5.83;;;2.20;99.90;1.90;100997.00;;;;4879226;28;109775;-65
2024/03/20 01:29:34;;;;;;;9.40;5.60;;;3.20;99.90;1.90;100977.00;;;;4880643;28;108328;-64
2024/03/20 01:32:00;;;;;;;9.83;5.23;;;2.20;99.90;1.90;100982.00;;;;4882249;28;88076;-65
2024/03/20 01:34:26;;;;;;;9.50;5.63;;;2.20;99.90;1.90;100986.00;;;;4877807;28;88955;-65
2024/03/20 01:36:52;;;;;;;11.53;5.57;;;2.20;99.90;2.00;100985.00;;;;4881385;28;87842;-65
2024/03/20 01:39:18;;;;;;;8.17;5.40;;;2.30;99.90;1.90;100987.00;;;;4881641;28;107315;-65
2024/03/20 01:41:45;;;;;;;8.17;5.03;;;2.30;99.90;1.90;100978.00;;;;4879115;28;89189;-65
2024/03/20 01:44:13;;;;;;;7.57;5.77;;;2.40;99.90;1.90;100985.00;;;;4876374;28;88339;-65
2024/03/20 01:46:40;;;;;;;7.03;6.17;;;2.20;99.90;1.90;100982.00;;;;4882339;28;87797;-65
2024/03/20 01:49:06;;;;;;;9.60;5.97;;;2.20;99.90;1.80;100972.00;;;;4877792;28;88353;-65
2024/03/20 01:51:33;;;;;;;9.13;5.93;;;2.20;99.90;1.80;100978.00;;;;4876141;28;119302;-64
2024/03/20 01:54:03;;;;;;;7.57;5.00;;;2.00;99.90;1.70;100977.00;;;;4878000;28;89557;-65
2024/03/20 01:56:28;;;;;;;15.57;7.17;;;2.10;99.90;1.60;100969.00;;;;4879770;28;87959;-64
2024/03/20 01:58:55;;;;;;;9.67;6.60;;;2.00;99.90;1.50;100968.00;;;;4876509;28;108397;-65
2024/03/20 02:01:21;;;;;;;8.90;5.90;;;1.90;99.90;1.40;100979.00;;;;4879016;28;88382;-65
2024/03/20 02:03:50;;;;;;;8.43;6.37;;;1.90;99.90;1.40;100975.00;;;;4880156;28;88540;-65
2024/03/20 02:06:26;;;;;;;7.70;6.13;;;1.60;99.90;1.20;100974.00;;;;4881552;28;108130;-65
2024/03/20 02:08:54;;;;;;;7.70;6.10;;;1.60;99.90;1.20;100971.00;;;;4878620;28;87174;-65
2024/03/20 02:11:22;;;;;;;8.43;6.67;;;1.50;99.90;1.10;100959.00;;;;4879147;28;99496;-64
2024/03/20 02:13:50;;;;;;;8.07;5.07;;;1.50;99.90;1.10;100974.00;;;;4877485;28;88741;-64
2024/03/20 02:16:20;;;;;;;12.23;7.33;;;1.50;99.90;1.00;100965.00;;;;4876771;28;88675;-64
2024/03/20 02:18:47;;;;;;;11.57;5.83;;;1.30;99.90;0.90;100972.00;;;;4880838;28;88327;-64
2024/03/20 02:21:19;;;;;;;9.60;5.60;;;1.20;99.90;0.80;100970.00;;;;4883459;28;109716;-65
2024/03/20 02:23:45;;;;;;;6.90;4.97;;;1.20;99.90;0.80;100973.00;;;;4880781;28;87906;-64
2024/03/20 02:26:11;;;;;;;13.80;6.10;;;1.20;99.90;0.80;100983.00;;;;4879421;28;100168;-64
2024/03/20 02:28:40;;;;;;;6.60;5.33;;;1.20;99.90;0.70;100976.00;;;;4879639;28;87873;-64
2024/03/20 02:31:07;;;;;;;8.40;6.30;;;1.10;99.90;0.70;100974.00;;;;4876751;28;109372;-66
2024/03/20 02:33:35;;;;;;;7.40;5.70;;;1.10;99.90;0.60;100966.00;;;;4876910;28;88070;-64
2024/03/20 02:36:01;;;;;;;5.90;5.03;;;1.00;99.90;0.60;100967.00;;;;4876831;28;88094;-64
2024/03/20 02:38:33;;;;;;;8.03;4.97;;;1.00;99.90;0.60;100968.00;;;;4877693;28;107215;-64
2024/03/20 02:41:00;;;;;;;8.17;6.57;;;0.90;99.90;0.50;100972.00;;;;4879436;28;108995;-64
2024/03/20 02:43:27;;;;;;;6.13;4.77;;;0.90;99.90;0.50;100955.00;;;;4878196;28;89099;-64
2024/03/20 02:45:53;;;;;;;9.80;5.87;;;0.70;99.90;0.50;100963.00;;;;4877329;28;88150;-64
2024/03/20 02:48:19;;;;;;;11.57;9.70;;;0.80;99.90;0.40;100960.00;;;;4883349;28;87988;-64
2024/03/20 02:50:45;;;;;;;10.23;5.80;;;0.80;99.90;0.30;100957.00;;;;4875307;28;116710;-64
2024/03/20 02:53:11;;;;;;;8.17;5.67;;;0.60;99.90;0.30;100955.00;;;;4878753;28;97154;-66
2024/03/20 02:55:40;;;;;;;7.87;5.77;;;0.70;99.90;0.20;100952.00;;;;4877898;28;110042;-66
2024/03/20 02:58:06;;;;;;;10.80;6.43;;;0.70;99.90;0.20;100951.00;;;;4878096;28;87269;-66
2024/03/20 03:00:32;;;;;;;6.23;5.27;;;0.50;99.90;0.10;100957.00;;;;4881267;28;116917;-64
2024/03/20 03:02:58;;;;;;;8.20;4.87;;;0.60;99.90;0.10;100955.00;;;;4876379;28;97667;-64
2024/03/20 03:05:25;;;;;;;11.07;6.60;;;0.40;99.90;0.00;100955.00;;;;4874541;28;99529;-64
2024/03/20 03:07:52;;;;;;;6.03;5.20;;;0.40;99.90;0.00;100953.00;;;;4874075;28;102750;-66
2024/03/20 03:10:24;;;;;;;6.97;5.23;;;0.30;99.90;0.00;100958.00;;;;4880062;28;88065;-66
2024/03/20 03:12:52;;;;;;;9.43;6.37;;;0.30;99.90;0.00;100956.00;;;;4879940;28;87909;-66
2024/03/20 03:15:19;;;;;;;6.13;5.07;;;0.40;99.90;0.00;100973.00;;;;4880759;28;87726;-66
2024/03/20 03:17:48;;;;;;;9.30;5.90;;;0.30;99.90;-0.10;100960.00;;;;4879489;28;88505;-66
2024/03/20 03:20:14;;;;;;;9.27;5.77;;;0.50;99.90;-0.10;100963.00;;;;4877855;28;110952;-66
2024/03/20 03:22:44;;;;;;;9.50;6.10;;;0.30;99.90;-0.10;100969.00;;;;4877964;28;88546;-65
2024/03/20 03:25:11;;;;;;;7.90;5.20;;;0.30;99.90;-0.10;100958.00;;;;4877973;28;101741;-65
2024/03/20 03:27:38;;;;;;;9.20;6.80;;;0.30;99.90;-0.10;100957.00;;;;4875682;28;88146;-66
2024/03/20 03:30:08;;;;;;;8.70;5.70;;;0.30;99.90;-0.10;100961.00;;;;4874968;28;109759;-66
2024/03/20 03:32:38;;;;;;;8.30;5.90;;;0.20;99.90;-0.20;100962.00;;;;4879479;28;88163;-66
2024/03/20 03:35:06;;;;;;;11.00;5.40;;;0.20;99.90;-0.20;100968.00;;;;4883946;28;88286;-65
2024/03/20 03:37:32;;;;;;;11.03;6.43;;;0.20;99.90;-0.30;100964.00;;;;4878097;28;88207;-66
2024/03/20 03:40:00;;;;;;;9.97;6.17;;;0.10;99.90;-0.30;100968.00;;;;4875017;28;89182;-65
2024/03/20 03:42:26;;;;;;;9.50;7.13;;;0.20;99.90;-0.40;100948.00;;;;4873429;28;87999;-65
2024/03/20 03:44:53;;;;;;;8.27;6.23;;;0.10;99.90;-0.40;100960.00;;;;4882879;28;87992;-66
2024/03/20 03:47:18;;;;;;;13.67;7.17;;;0.70;99.90;-0.50;100969.00;;;;4886517;28;87342;-66
2024/03/20 03:49:44;;;;;;;10.57;6.43;;;0.00;99.90;-0.50;100963.00;;;;4879915;28;117360;-65
2024/03/20 03:52:10;;;;;;;11.23;6.93;;;-0.20;99.90;-0.60;100968.00;;;;4880567;28;117789;-65
2024/03/20 03:54:35;;;;;;;11.37;6.53;;;-0.10;99.90;-0.60;100961.00;;;;4876193;28;107498;-66
2024/03/20 03:57:01;;;;;;;8.17;5.63;;;-0.30;99.90;-0.60;100971.00;;;;4877371;28;108606;-66
2024/03/20 03:59:27;;;;;;;9.40;5.70;;;-0.20;99.90;-0.60;100970.00;;;;4874620;28;90060;-65
2024/03/20 04:01:52;;;;;;;8.50;6.00;;;-0.30;99.90;-0.60;100965.00;;;;4878066;28;117386;-65
2024/03/20 04:04:18;;;;;;;7.63;5.80;;;-0.20;99.90;-0.70;100970.00;;;;4877068;28;111579;-65
2024/03/20 04:06:44;;;;;;;7.30;6.33;;;-0.30;99.90;-0.70;100980.00;;;;4881335;28;107769;-67
2024/03/20 04:09:10;;;;;;;9.53;5.93;;;-0.30;99.90;-0.70;100988.00;;;;4872860;28;116593;-66
2024/03/20 04:11:39;;;;;;;10.13;5.53;;;-0.30;99.90;-0.70;100980.00;;;;4879417;28;88809;-65
2024/03/20 04:14:07;;;;;;;9.77;5.87;;;-0.30;99.90;-0.70;100982.00;;;;4878583;28;109913;-65
2024/03/20 04:16:34;;;;;;;9.53;6.33;;;-0.30;99.90;-0.70;100993.00;;;;4876100;28;88026;-66
2024/03/20 04:19:00;;;;;;;8.57;5.53;;;-0.30;99.90;-0.70;100985.00;;;;4877798;28;88957;-65
2024/03/20 04:21:26;;;;;;;10.47;6.53;;;-0.30;99.90;-0.70;100989.00;;;;4874395;28;109265;-66
2024/03/20 04:23:52;;;;;;;10.30;6.57;;;-0.20;99.90;-0.70;100989.00;;;;4878041;28;110434;-65
2024/03/20 04:26:19;;;;;;;12.23;7.40;;;-0.30;99.90;-0.80;100992.00;;;;4876935;28;88002;-65
2024/03/20 04:28:46;;;;;;;9.03;6.30;;;-0.40;99.90;-0.80;100995.00;;;;4879599;28;87766;-65
2024/03/20 04:31:15;;;;;;;8.83;5.80;;;-0.40;99.90;-0.80;100987.00;;;;4877055;28;88559;-65
2024/03/20 04:33:42;;;;;;;9.50;7.20;;;-0.30;99.90;-0.90;100992.00;;;;4878373;28;89947;-66
2024/03/20 04:36:09;;;;;;;10.33;6.33;;;-0.30;99.90;-0.90;100983.00;;;;4876046;28;93516;-66
2024/03/20 04:38:36;;;;;;;10.80;6.93;;;-0.60;99.90;-0.90;100990.00;;;;4875969;28;112652;-66
2024/03/20 04:41:04;;;;;;;10.77;7.03;;;-0.50;99.90;-0.90;100994.00;;;;4878696;28;88314;-66
2024/03/20 04:43:30;;;;;;;7.50;5.97;;;-0.60;99.90;-1.00;100989.00;;;;4877602;28;88450;-66
2024/03/20 04:45:56;;;;;;;10.63;6.43;;;-0.70;99.90;-1.00;100989.00;;;;4881683;28;88145;-66
2024/03/20 04:48:22;;;;;;;10.50;6.60;;;-0.70;99.90;-1.00;100993.00;;;;4883831;28;88098;-66
2024/03/20 04:50:47;;;;;;;8.80;6.00;;;-0.70;99.90;-1.00;100997.00;;;;4876304;28;117545;-65
2024/03/20 04:53:13;;;;;;;9.83;7.10;;;-0.20;99.90;-1.00;101004.00;;;;4881159;28;110880;-66
2024/03/20 04:55:38;;;;;;;12.80;6.83;;;-0.60;99.90;-1.00;101008.00;;;;4877905;28;109700;-66
2024/03/20 04:58:04;;;;;;;9.03;6.67;;;-0.70;99.90;-1.00;100998.00;;;;4875992;28;88788;-66
2024/03/20 05:00:30;;;;;;;10.57;7.13;;;-0.70;99.90;-1.00;101007.00;;;;4882952;28;115527;-66
2024/03/20 05:02:55;;;;;;;12.70;7.13;;;-0.60;99.90;-1.00;101002.00;;;;4879863;28;109979;-66
2024/03/20 05:05:21;;;;;;;11.73;7.33;;;-0.70;99.90;-1.10;101005.00;;;;4879168;28;108407;-66
2024/03/20 05:07:47;;;;;;;12.07;7.13;;;-0.80;99.90;-1.10;101003.00;;;;4880471;28;90139;-66
2024/03/20 05:10:12;;;;;;;11.43;7.23;;;-0.70;99.90;-1.10;101008.00;;;;4877906;28;117628;-66
2024/03/20 05:12:38;;;;;;;11.43;6.70;;;-0.70;99.90;-1.10;101001.00;;;;4880721;28;108552;-66
2024/03/20 05:15:05;;;;;;;10.13;7.33;;;-0.70;99.90;-1.10;101014.00;;;;4877510;28;90395;-66
2024/03/20 05:17:31;;;;;;;10.33;7.40;;;-0.70;99.90;-1.10;101011.00;;;;4895877;28;90778;-66
2024/03/20 05:19:56;;;;;;;15.90;8.60;;;-0.40;99.90;-1.10;101003.00;;;;4881841;28;118187;-66
2024/03/20 05:22:22;;;;;;;12.03;6.87;;;-0.80;99.90;-1.10;101012.00;;;;4875505;28;109266;-65
2024/03/20 05:24:51;;;;;;;11.93;7.87;;;-0.70;99.90;-1.10;101014.00;;;;4877872;28;109988;-66
2024/03/20 05:27:18;;;;;;;10.43;6.00;;;-0.70;99.90;-1.00;101011.00;;;;4876623;28;88647;-65
2024/03/20 05:29:44;;;;;;;14.23;7.27;;;-0.60;99.90;-0.90;101015.00;;;;4882272;28;87800;-65
2024/03/20 05:32:10;;;;;;;11.47;7.23;;;-0.50;99.90;-0.90;101011.00;;;;4880862;28;110920;-65
2024/03/20 05:34:36;;;;;;;23.37;7.73;;;-0.60;99.90;-0.80;101011.00;;;;4872690;28;109432;-65
2024/03/20 05:37:04;;;;;;;10.87;6.53;;;-0.50;99.90;-0.70;101006.00;;;;4879562;28;89048;-65
2024/03/20 05:39:30;;;;;;;12.20;7.57;;;-0.40;99.90;-0.60;101011.00;;;;4885692;28;87645;-66
2024/03/20 05:41:56;;;;;;;11.20;7.67;;;-0.30;99.90;-0.50;101005.00;;;;4878773;28;87732;-66
2024/03/20 05:44:24;;;;;;;9.43;6.90;;;-0.20;99.90;-0.40;101010.00;;;;4893677;28;108116;-65
2024/03/20 05:46:51;;;;;;;8.10;6.07;;;-0.10;99.90;-0.30;101015.00;;;;4876761;28;88476;-66
2024/03/20 05:49:17;;;;;;;11.57;6.73;;;0.70;99.90;-0.10;101013.00;;;;4873881;28;88929;-66
2024/03/20 05:51:43;;;;;;;7.90;5.80;;;0.10;99.90;0.00;101020.00;;;;4877735;28;102608;-66
2024/03/20 05:54:08;;;;;;;12.43;6.40;;;0.30;99.90;0.10;101023.00;;;;4874453;28;107700;-66
2024/03/20 05:56:34;;;;;;;11.63;7.43;;;0.50;99.90;0.30;101023.00;;;;4875723;28;118917;-66
2024/03/20 05:59:00;;;;;;;10.53;6.97;;;0.60;99.90;0.40;101024.00;;;;4879395;28;89782;-65
2024/03/20 06:01:26;;;;;;;7.60;5.03;;;0.70;99.90;0.60;101032.00;;;;4889384;28;108804;-64
2024/03/20 06:03:52;;;;;;;8.63;5.90;;;0.80;99.90;0.70;101027.00;;;;4878001;28;88278;-64
2024/03/20 06:06:18;;;;;;;12.90;7.00;;;1.00;99.90;0.90;101025.00;;;;4878509;28;88693;-66
2024/03/20 06:08:43;;;;;;;10.07;6.87;;;2.10;99.90;1.10;101024.00;;;;4873274;28;105540;-66
2024/03/20 06:11:09;;;;;;;9.07;5.83;;;1.30;99.90;1.20;101029.00;;;;4876636;28;110901;-66
2024/03/20 06:13:35;;;;;;;9.90;6.37;;;1.50;99.90;1.40;101019.00;;;;4875848;28;107684;-66
2024/03/20 06:16:00;;;;;;;13.13;7.30;;;2.70;99.90;1.70;101023.00;;;;4879784;28;117709;-66
2024/03/20 06:18:26;;;;;;;17.30;11.13;;;1.90;99.90;1.90;101029.00;;;;4878139;28;117663;-66
2024/03/20 06:20:52;;;;;;;14.73;8.73;;;2.20;99.90;2.20;101023.00;;;;4877691;28;88976;-65
2024/03/20 06:23:17;;;;;;;11.80;8.03;;;2.20;99.90;2.40;101027.00;;;;4878127;28;108443;-64
2024/03/20 06:25:43;;;;;;;13.03;6.57;;;2.50;99.90;2.70;101025.00;;;;4878998;28;118547;-65
2024/03/20 06:28:09;;;;;;;12.30;7.53;;;2.80;99.90;3.00;101033.00;;;;4878484;28;116433;-64
2024/03/20 06:30:40;;;;;;;7.37;6.10;;;3.00;99.90;3.20;101034.00;;;;4877974;28;109824;-65
2024/03/20 06:33:06;;;;;;;15.33;7.03;;;3.30;99.90;3.50;101042.00;;;;4878928;28;107465;-65
2024/03/20 06:35:32;;;;;;;8.33;6.47;;;3.60;99.90;3.70;101037.00;;;;4875800;28;116220;-64
2024/03/20 06:38:00;;;;;;;10.40;6.70;;;3.90;99.90;3.90;101036.00;;;;4880053;28;87422;-65
2024/03/20 06:40:32;;;;;;;8.90;6.60;;;4.00;99.90;4.10;101043.00;;;;4879261;28;88106;-64
2024/03/20 06:43:01;;;;;;;10.30;6.00;;;4.20;99.90;4.30;101032.00;;;;4878525;28;88152;-65
2024/03/20 06:45:39;;;;;;;8.57;5.90;;;4.50;99.90;4.50;101037.00;;;;4882736;28;88798;-65
2024/03/20 06:48:05;;;;;;;12.60;6.50;;;4.60;99.90;4.60;101038.00;;;;4882108;28;88706;-65
2024/03/20 06:50:31;;;;;;;11.60;6.07;;;4.80;99.90;4.80;101048.00;;;;4882403;28;87576;-65
2024/03/20 06:53:00;;;;;;;8.47;5.87;;;4.80;99.90;5.00;101052.00;;;;4876763;28;88181;-65
2024/03/20 06:55:27;;;;;;;10.77;5.33;;;5.10;99.90;5.20;101049.00;;;;4875706;28;88605;-65
2024/03/20 06:57:53;;;;;;;7.53;6.03;;;5.30;99.90;5.50;101059.00;;;;4877982;28;88604;-66
2024/03/20 07:00:19;;;;;;;8.57;5.33;;;5.80;99.90;5.70;101054.00;;;;4864958;28;88186;-65
2024/03/20 07:02:46;;;;;;;10.20;6.13;;;5.80;99.90;5.90;101061.00;;;;4882225;28;86993;-65
2024/03/20 07:05:16;;;;;;;8.30;5.23;;;6.50;99.90;6.10;101053.00;;;;4885352;28;100981;-65
2024/03/20 07:07:43;;;;;;;6.27;5.13;;;6.20;99.90;6.30;101056.00;;;;4880431;28;108392;-64
2024/03/20 07:10:10;;;;;;;7.07;5.83;;;7.00;99.90;6.50;101058.00;;;;4877776;28;89116;-65
2024/03/20 07:12:36;;;;;;;9.97;6.77;;;6.70;99.90;6.70;101061.00;;;;4875392;28;88529;-64
2024/03/20 07:15:10;;;;;;;13.73;5.50;;;7.60;99.90;6.90;101054.00;;;;4877814;28;111949;-64
2024/03/20 07:17:36;;;;;;;11.23;6.10;;;7.40;99.90;7.20;101063.00;;;;4882621;28;87775;-65
2024/03/20 07:20:06;;;;;;;9.53;5.97;;;7.10;99.90;7.40;101057.00;;;;4875683;28;109377;-65
2024/03/20 07:22:32;;;;;;;8.00;5.13;;;7.60;99.90;7.70;101055.00;;;;4880045;28;87887;-65
2024/03/20 07:24:58;;;;;;;8.17;4.57;;;7.70;99.90;8.00;101059.00;;;;4880722;28;108154;-65
2024/03/20 07:27:23;;;;;;;10.60;6.00;;;8.00;99.90;8.30;101058.00;;;;4878088;28;116243;-65
2024/03/20 07:29:49;;;;;;;8.33;4.80;;;8.30;99.90;8.60;101053.00;;;;4874140;28;110454;-65
2024/03/20 07:32:15;;;;;;;7.80;5.63;;;8.60;99.90;8.90;101062.00;;;;4876154;28;108618;-65
2024/03/20 07:34:40;;;;;;;7.40;5.40;;;8.90;99.90;9.10;101058.00;;;;4876701;28;90001;-65
2024/03/20 07:37:06;;;;;;;7.77;5.57;;;9.20;99.90;9.30;101057.00;;;;4880003;28;117917;-65
2024/03/20 07:39:33;;;;;;;6.63;5.27;;;9.40;98.30;9.50;101057.00;;;;4879969;28;88993;-64
2024/03/20 07:42:03;;;;;;;6.03;5.00;;;9.50;97.50;9.70;101055.00;;;;4879333;28;87836;-65
2024/03/20 07:44:32;;;;;;;8.77;4.97;;;9.70;96.70;9.90;101052.00;;;;4879567;28;88981;-65
2024/03/20 07:46:59;;;;;;;7.20;4.77;;;9.90;96.10;10.10;101068.00;;;;4881871;28;87891;-65
2024/03/20 07:49:26;;;;;;;7.20;5.43;;;10.20;95.60;10.40;101059.00;;;;4878428;28;88071;-65
2024/03/20 07:51:52;;;;;;;8.43;5.23;;;10.40;95.10;10.70;101060.00;;;;4880388;28;91479;-65
2024/03/20 07:54:23;;;;;;;6.97;5.00;;;10.70;94.30;11.00;101061.00;;;;4880876;28;88865;-65
2024/03/20 07:56:55;;;;;;;8.37;4.87;;;10.90;93.50;11.30;101072.00;;;;4879857;28;88461;-64
2024/03/20 07:59:23;;;;;;;8.50;5.13;;;11.20;93.50;11.70;101073.00;;;;4875381;28;102338;-65
2024/03/20 08:01:50;;;;;;;6.67;4.47;;;11.60;93.50;12.10;101069.00;;;;4877748;28;88012;-65
2024/03/20 08:04:16;;;;;;;8.83;4.60;;;11.90;93.20;12.40;101067.00;;;;4876985;28;89129;-65
2024/03/20 08:06:42;;;;;;;7.07;4.27;;;12.30;91.90;12.60;101078.00;;;;4876595;28;91020;-66
2024/03/20 08:09:08;;;;;;;8.90;5.07;;;12.60;91.50;12.90;101071.00;;;;4877178;28;87763;-64
2024/03/20 08:11:34;;;;;;;5.77;4.10;;;14.30;91.50;13.10;101073.00;;;;4878981;28;87758;-65
2024/03/20 08:14:07;;;;;;;9.87;4.10;;;13.10;90.30;13.40;101065.00;;;;4879498;28;88907;-64
2024/03/20 08:16:37;;;;;;;7.97;4.60;;;13.30;89.80;13.70;101071.00;;;;4887581;28;87850;-64
2024/03/20 08:19:09;;;;;;;5.43;3.60;;;13.60;89.00;14.00;101071.00;;;;4884965;28;87641;-64
2024/03/20 08:21:35;;;;;;;6.90;3.73;;;13.90;86.90;14.20;101072.00;;;;4886409;28;88043;-65
2024/03/20 08:24:04;;;;;;;5.97;3.65;;;14.10;85.70;14.50;101079.00;;;;4882501;28;110164;-64
2024/03/20 08:26:30;;;;;;;6.65;3.88;;;14.40;84.20;14.60;101077.00;;;;4877532;28;89327;-64
2024/03/20 08:28:56;;;;;;;7.68;4.38;;;14.60;80.90;14.80;101077.00;;;;4881438;28;88058;-64
2024/03/20 08:31:21;;;;;;;5.13;3.08;;;14.70;80.00;15.00;101080.00;;;;4880814;28;92527;-64
2024/03/20 08:33:48;;;;;;;7.20;3.88;;;14.90;80.10;15.30;101072.00;;;;4883818;28;117708;-64
2024/03/20 08:36:14;;;;;;;6.45;3.58;;;15.20;79.30;15.60;101079.00;;;;4881521;28;88392;-64
2024/03/20 08:38:40;;;;;;;4.50;3.17;;;15.50;78.00;15.90;101085.00;;;;4879514;28;110713;-65
2024/03/20 08:41:06;;;;;;;6.97;3.72;;;15.80;77.20;16.20;101088.00;;;;4884324;28;87356;-65
2024/03/20 08:43:33;;;;;;;4.30;3.20;;;16.10;74.40;16.40;101079.00;;;;4879371;28;116200;-64
2024/03/20 08:46:02;;;;;;;6.97;3.97;;;16.30;73.20;16.60;101075.00;;;;4880485;28;88608;-65
2024/03/20 08:48:28;;;;;;;4.70;2.63;;;16.50;72.80;16.90;101075.00;;;;4884732;28;88867;-65
2024/03/20 08:50:54;;;;;;;9.20;3.47;;;16.70;72.10;17.30;101073.00;;;;4879028;28;87865;-64
2024/03/20 08:53:21;;;;;;;6.18;3.85;;;17.20;71.30;17.60;101069.00;;;;4881351;28;97766;-64
2024/03/20 08:55:48;;;;;;;5.82;3.53;;;17.40;70.10;17.90;101077.00;;;;4880489;28;116786;-65
2024/03/20 08:58:14;;;;;;;4.75;3.53;;;17.70;68.70;18.20;101074.00;;;;4882841;28;87657;-64
2024/03/20 09:00:39;;;;;;;5.70;3.22;;;18.00;67.70;18.40;101068.00;;;;4881846;28;87727;-64
2024/03/20 09:03:05;;;;;;;5.93;3.38;;;18.20;66.20;18.70;101072.00;;;;4883243;28;89167;-64
2024/03/20 09:05:31;;;;;;;4.45;2.65;;;18.50;65.00;19.00;101066.00;;;;4884128;28;106798;-65
2024/03/20 09:07:57;;;;;;;5.85;3.75;;;18.70;62.60;19.00;101070.00;;;;4879322;28;88043;-64
2024/03/20 09:10:23;;;;;;;4.30;2.85;;;18.90;58.40;19.00;101069.00;;;;4880679;28;87964;-64
2024/03/20 09:12:48;;;;;;;5.47;3.50;;;18.90;57.90;19.10;101072.00;;;;4884244;28;98945;-64
2024/03/20 09:15:14;;;;;;;11.25;3.63;;;19.00;56.60;19.10;101072.00;;;;4882563;28;120429;-64
2024/03/20 09:17:40;;;;;;;5.70;3.97;;;19.00;56.20;19.30;101077.00;;;;4877944;28;110245;-64
2024/03/20 09:20:15;;;;;;;6.43;3.80;;;19.10;56.30;19.50;101065.00;;;;4881346;28;87876;-64
2024/03/20 09:22:46;;;;;;;6.20;3.53;;;19.30;56.50;19.90;101073.00;;;;4880978;28;88480;-64
2024/03/20 09:25:13;;;;;;;4.15;3.25;;;19.60;56.30;20.20;101068.00;;;;4882404;28;88743;-64
2024/03/20 09:27:39;;;;;;;5.55;3.85;;;19.90;55.80;20.60;101081.00;;;;4881505;28;87674;-64
2024/03/20 09:30:06;;;;;;;5.32;2.88;;;20.20;55.50;20.90;101062.00;;;;4880789;28;97684;-64
2024/03/20 09:32:32;;;;;;;4.97;3.05;;;20.60;54.90;21.20;101069.00;;;;4881391;28;88167;-64
2024/03/20 09:35:00;;;;;;;4.07;2.80;;;20.90;54.00;21.60;101062.00;;;;4878508;28;88621;-64
2024/03/20 09:37:27;;;;;;;4.03;2.53;;;21.20;53.30;21.80;101068.00;;;;4878542;28;89480;-64
2024/03/20 09:39:53;;;;;;;7.75;3.15;;;21.40;52.20;22.00;101069.00;;;;4877538;28;100160;-64
2024/03/20 09:42:21;;;;;;;5.22;3.33;;;21.60;51.60;22.40;101062.00;;;;4880963;28;88122;-64
2024/03/20 09:44:48;;;;;;;6.47;2.63;;;21.90;51.10;22.50;101059.00;;;;4879520;28;107093;-65
2024/03/20 09:47:14;;;;;;;6.30;2.83;;;22.20;49.20;22.70;101062.00;;;;4883867;28;100840;-64
2024/03/20 09:49:41;;;;;;;5.13;2.85;;;22.30;47.50;22.70;101059.00;;;;4888301;28;94554;-64
2024/03/20 09:52:09;;;;;;;4.45;2.88;;;22.30;48.10;22.90;101055.00;;;;4881508;28;89705;-65
2024/03/20 09:54:35;;;;;;;4.13;2.60;;;22.50;48.10;23.00;101068.00;;;;4877382;28;88111;-64
2024/03/20 09:57:01;;;;;;;6.68;3.38;;;22.70;48.00;23.10;101062.00;;;;4884841;28;103833;-64
2024/03/20 09:59:29;;;;;;;3.85;2.60;;;22.90;47.30;23.20;101060.00;;;;4884871;28;105460;-64
2024/03/20 10:01:55;;;;;;;6.22;3.25;;;23.00;46.80;23.30;101053.00;;;;4879870;28;89616;-64
2024/03/20 10:04:27;;;;;;;3.58;2.67;;;23.10;46.00;23.40;101056.00;;;;4879454;28;88574;-64
2024/03/20 10:06:53;;;;;;;8.60;2.88;;;23.10;45.70;23.60;101054.00;;;;4879243;28;87830;-64
2024/03/20 10:09:20;;;;;;;6.57;3.15;;;23.30;46.10;23.70;101059.00;;;;4881236;28;90517;-64
2024/03/20 10:11:47;;;;;;;5.78;3.25;;;23.40;44.00;23.50;101057.00;;;;4881915;28;88960;-65
2024/03/20 10:14:13;;;;;;;4.53;2.63;;;23.40;43.30;23.30;101065.00;;;;4878930;28;88239;-64
2024/03/20 10:16:39;;;;;;;4.30;2.97;;;23.20;43.50;23.10;101063.00;;;;4881266;28;87809;-64
2024/03/20 10:19:05;;;;;;;6.95;2.72;;;22.90;43.70;23.10;101066.00;;;;4877312;28;87074;-65
2024/03/20 10:21:33;;;;;;;5.78;3.42;;;22.80;44.10;23.10;101059.00;;;;4881986;28;117682;-65
2024/03/20 10:23:59;;;;;;;6.07;3.17;;;22.80;44.60;23.00;101068.00;;;;4881792;28;117853;-65
2024/03/20 10:26:27;;;;;;;4.53;2.15;;;22.80;44.60;22.80;101063.00;;;;4877912;28;88743;-64
2024/03/20 10:28:55;;;;;;;4.60;2.55;;;22.60;44.50;22.60;101061.00;;;;4879660;28;87960;-65
2024/03/20 10:31:21;;;;;;;4.15;2.92;;;22.40;44.60;22.30;101060.00;;;;4883847;28;116385;-65
2024/03/20 10:33:50;;;;;;;6.28;3.10;;;22.10;44.80;22.00;101058.00;;;;4880481;28;88834;-65
2024/03/20 10:36:17;;;;;;;5.57;2.75;;;21.80;44.00;21.70;101058.00;;;;4877393;28;104539;-64
2024/03/20 10:38:44;;;;;;;5.13;3.78;;;21.50;44.70;21.50;101060.00;;;;4876363;28;87861;-64
2024/03/20 10:41:13;;;;;;;6.75;2.95;;;21.40;44.30;21.40;101056.00;;;;4883324;28;109124;-64
2024/03/20 10:43:40;;;;;;;5.90;3.40;;;21.20;44.20;21.30;101059.00;;;;4881241;28;101715;-64
2024/03/20 10:46:17;;;;;;;6.07;3.70;;;21.10;44.00;21.40;101045.00;;;;4883247;28;87522;-65
2024/03/20 10:48:43;;;;;;;5.35;4.00;;;21.40;45.50;21.70;101055.00;;;;4872673;28;87724;-64